createdAt,value
2022-10-28T00:01:08.111Z,10.60
2022-10-28T00:03:39.353Z,10.50
2022-10-28T00:06:08.919Z,10.40
2022-10-28T00:08:36.909Z,10.40
2022-10-28T00:11:07.119Z,10.30
2022-10-28T00:13:35.642Z,10.30
2022-10-28T00:16:10.586Z,10.30
2022-10-28T00:18:39.042Z,10.20
2022-10-28T00:21:08.994Z,10.20
2022-10-28T00:23:37.191Z,10.20
2022-10-28T00:26:07.445Z,10.20
2022-10-28T00:28:35.406Z,10.10
2022-10-28T00:31:09.977Z,10.00
2022-10-28T00:33:38.133Z,10.00
2022-10-28T00:36:13.893Z,10.00
2022-10-28T00:38:43.148Z,10.10
2022-10-28T00:41:12.660Z,10.10
2022-10-28T00:43:43.333Z,10.10
2022-10-28T00:46:27.896Z,10.00
2022-10-28T00:48:59.585Z,9.90
2022-10-28T00:51:30.622Z,9.80
2022-10-28T00:53:59.307Z,9.80
2022-10-28T00:56:30.635Z,9.80
2022-10-28T00:59:02.166Z,9.80
2022-10-28T01:01:31.743Z,9.80
2022-10-28T01:04:01.620Z,9.80
2022-10-28T01:06:30.348Z,9.80
2022-10-28T01:09:00.080Z,9.90
2022-10-28T01:11:52.164Z,9.90
2022-10-28T01:14:28.221Z,10.00
2022-10-28T01:17:10.082Z,10.00
2022-10-28T01:20:20.214Z,10.00
2022-10-28T01:22:55.235Z,9.90
2022-10-28T01:25:42.974Z,9.80
2022-10-28T01:28:26.649Z,9.80
2022-10-28T01:31:16.721Z,9.70
2022-10-28T01:33:51.038Z,9.60
2022-10-28T01:36:28.461Z,9.60
2022-10-28T01:39:03.948Z,9.60
2022-10-28T01:41:35.418Z,9.60
2022-10-28T01:44:08.620Z,9.60
2022-10-28T01:46:42.369Z,9.60
2022-10-28T01:49:14.667Z,9.70
2022-10-28T01:51:46.279Z,9.80
2022-10-28T01:54:19.891Z,9.90
2022-10-28T01:56:49.286Z,9.80
2022-10-28T01:59:21.929Z,9.70
2022-10-28T02:01:51.279Z,9.70
2022-10-28T02:04:19.345Z,9.60
2022-10-28T02:06:50.482Z,9.60
2022-10-28T02:09:33.868Z,9.60
2022-10-28T02:12:20.989Z,9.60
2022-10-28T02:15:14.255Z,9.70
2022-10-28T02:17:55.026Z,9.70
2022-10-28T02:20:34.337Z,9.70
2022-10-28T02:23:14.696Z,9.60
2022-10-28T02:25:47.290Z,9.60
2022-10-28T02:28:20.540Z,9.60
2022-10-28T02:30:54.205Z,9.50
2022-10-28T02:33:27.868Z,9.40
2022-10-28T02:36:00.012Z,9.40
2022-10-28T02:38:32.535Z,9.40
2022-10-28T02:41:03.501Z,9.40
2022-10-28T02:43:34.581Z,9.40
2022-10-28T02:46:04.980Z,9.50
2022-10-28T02:48:37.707Z,9.50
2022-10-28T02:51:11.263Z,9.50
2022-10-28T02:53:46.301Z,9.40
2022-10-28T02:56:16.787Z,9.40
2022-10-28T02:58:46.281Z,9.30
2022-10-28T03:01:14.265Z,9.30
2022-10-28T03:03:43.711Z,9.30
2022-10-28T03:06:11.646Z,9.30
2022-10-28T03:08:39.556Z,9.30
2022-10-28T03:11:07.439Z,9.30
2022-10-28T03:13:35.398Z,9.30
2022-10-28T03:16:03.368Z,9.30
2022-10-28T03:18:31.304Z,9.30
2022-10-28T03:21:00.566Z,9.30
2022-10-28T03:23:28.484Z,9.30
2022-10-28T03:25:56.405Z,9.20
2022-10-28T03:28:24.317Z,9.30
2022-10-28T03:30:52.353Z,9.30
2022-10-28T03:33:20.311Z,9.40
2022-10-28T03:35:48.185Z,9.40
2022-10-28T03:38:17.406Z,9.50
2022-10-28T03:40:45.334Z,9.40
2022-10-28T03:43:13.314Z,9.40
2022-10-28T03:45:41.261Z,9.40
2022-10-28T03:48:09.216Z,9.40
2022-10-28T03:50:37.339Z,9.50
2022-10-28T03:53:05.234Z,9.50
2022-10-28T03:55:34.489Z,9.50
2022-10-28T03:58:02.990Z,9.50
2022-10-28T04:00:31.185Z,9.60
2022-10-28T04:02:59.118Z,9.70
2022-10-28T04:05:27.051Z,9.80
2022-10-28T04:07:54.995Z,9.90
2022-10-28T04:10:22.867Z,10.00
2022-10-28T04:12:52.360Z,10.00
2022-10-28T04:15:20.646Z,10.00
2022-10-28T04:17:48.517Z,9.90
2022-10-28T04:20:16.696Z,9.90
2022-10-28T04:22:44.612Z,9.80
2022-10-28T04:25:12.808Z,9.90
2022-10-28T04:27:40.765Z,9.90
2022-10-28T04:30:12.385Z,9.90
2022-10-28T04:32:40.324Z,10.00
2022-10-28T04:35:09.152Z,10.10
2022-10-28T04:37:37.115Z,10.20
2022-10-28T04:40:05.759Z,10.20
2022-10-28T04:42:33.758Z,10.10
2022-10-28T04:45:01.684Z,10.10
2022-10-28T04:47:30.969Z,10.20
2022-10-28T04:49:58.815Z,10.20
2022-10-28T04:52:26.778Z,10.30
2022-10-28T04:54:54.643Z,10.30
2022-10-28T04:57:22.510Z,10.30
2022-10-28T04:59:50.459Z,10.40
2022-10-28T05:02:18.487Z,10.40
2022-10-28T05:04:47.819Z,10.50
2022-10-28T05:07:17.631Z,10.60
2022-10-28T05:09:47.876Z,10.60
2022-10-28T05:12:15.754Z,10.70
2022-10-28T05:14:43.634Z,10.70
2022-10-28T05:17:12.546Z,10.70
2022-10-28T05:19:40.451Z,10.70
2022-10-28T05:22:09.734Z,10.70
2022-10-28T05:24:37.594Z,10.80
2022-10-28T05:27:05.601Z,10.80
2022-10-28T05:29:33.566Z,10.80
2022-10-28T05:32:01.715Z,10.90
2022-10-28T05:34:29.667Z,10.90
2022-10-28T05:36:57.529Z,10.90
2022-10-28T05:39:26.802Z,10.90
2022-10-28T05:41:54.659Z,11.00
2022-10-28T05:44:22.613Z,11.00
2022-10-28T05:46:50.498Z,11.00
2022-10-28T05:49:20.353Z,11.00
2022-10-28T05:51:48.509Z,11.00
2022-10-28T05:54:16.417Z,11.10
2022-10-28T05:56:45.743Z,11.20
2022-10-28T05:59:13.605Z,11.20
2022-10-28T06:01:41.572Z,11.20
2022-10-28T06:04:09.584Z,11.20
2022-10-28T06:06:37.582Z,11.20
2022-10-28T06:09:05.871Z,11.20
2022-10-28T06:11:32.297Z,11.30
2022-10-28T06:14:01.911Z,11.40
2022-10-28T06:16:29.866Z,11.50
2022-10-28T06:18:57.784Z,11.70
2022-10-28T06:21:25.702Z,11.80
2022-10-28T06:23:53.599Z,11.90
2022-10-28T06:26:21.548Z,11.90
2022-10-28T06:28:49.432Z,12.00
2022-10-28T06:31:18.694Z,12.00
2022-10-28T06:33:46.930Z,12.00
2022-10-28T06:36:14.842Z,12.00
2022-10-28T06:38:42.739Z,12.00
2022-10-28T06:41:10.647Z,12.10
2022-10-28T06:43:38.652Z,12.10
2022-10-28T06:46:06.588Z,12.10
2022-10-28T06:48:37.320Z,12.10
2022-10-28T06:51:05.569Z,12.10
2022-10-28T06:53:33.539Z,12.10
2022-10-28T06:56:01.508Z,12.10
2022-10-28T06:58:29.561Z,12.10
2022-10-28T07:00:57.508Z,12.10
2022-10-28T07:03:25.428Z,12.10
2022-10-28T07:05:56.522Z,12.10
2022-10-28T07:08:24.533Z,12.10
2022-10-28T07:10:56.566Z,12.10
2022-10-28T07:13:24.488Z,12.10
2022-10-28T07:15:53.536Z,12.10
2022-10-28T07:18:21.781Z,12.20
2022-10-28T07:20:50.397Z,12.20
2022-10-28T07:23:20.118Z,12.30
2022-10-28T07:28:27.811Z,12.80
2022-10-28T07:30:56.100Z,13.20
2022-10-28T07:33:24.173Z,13.50
2022-10-28T07:35:52.083Z,13.80
2022-10-28T07:38:21.400Z,13.90
2022-10-28T07:40:49.414Z,14.00
2022-10-28T07:43:17.276Z,13.90
2022-10-28T07:45:45.312Z,14.00
2022-10-28T07:48:13.261Z,14.20
2022-10-28T07:50:41.705Z,14.20
2022-10-28T07:53:09.699Z,14.30
2022-10-28T07:55:39.035Z,14.40
2022-10-28T07:58:07.184Z,14.70
2022-10-28T08:00:35.208Z,15.10
2022-10-28T08:03:03.669Z,15.50
2022-10-28T08:05:31.632Z,15.80
2022-10-28T08:07:59.586Z,16.10
2022-10-28T08:10:28.232Z,16.40
2022-10-28T08:12:59.500Z,16.80
2022-10-28T08:15:28.777Z,16.90
2022-10-28T08:17:57.586Z,17.10
2022-10-28T08:20:25.778Z,17.20
2022-10-28T08:22:53.839Z,17.40
2022-10-28T08:25:21.937Z,17.50
2022-10-28T08:27:49.796Z,17.70
2022-10-28T08:30:19.249Z,17.80
2022-10-28T08:32:47.183Z,17.80
2022-10-28T08:35:15.189Z,18.00
2022-10-28T08:37:46.083Z,18.10
2022-10-28T08:40:14.696Z,18.10
2022-10-28T08:42:48.433Z,18.00
2022-10-28T08:45:26.501Z,17.90
2022-10-28T08:48:08.888Z,17.60
2022-10-28T08:50:46.319Z,17.20
2022-10-28T08:53:17.638Z,17.00
2022-10-28T08:55:48.651Z,16.80
2022-10-28T08:58:21.851Z,16.70
2022-10-28T09:00:54.828Z,16.60
2022-10-28T09:03:24.201Z,16.50
2022-10-28T09:05:59.052Z,16.40
2022-10-28T09:08:29.334Z,16.30
2022-10-28T09:11:13.036Z,16.20
2022-10-28T09:13:54.393Z,16.10
2022-10-28T09:16:33.884Z,15.90
2022-10-28T09:19:05.952Z,15.70
2022-10-28T09:21:42.188Z,15.50
2022-10-28T09:24:18.570Z,15.40
2022-10-28T09:26:54.399Z,15.60
2022-10-28T09:29:37.203Z,16.00
2022-10-28T09:32:19.400Z,16.40
2022-10-28T09:34:53.091Z,16.90
2022-10-28T09:37:25.224Z,17.20
2022-10-28T09:39:56.949Z,17.60
2022-10-28T09:42:29.258Z,17.90
2022-10-28T09:45:00.922Z,18.20
2022-10-28T09:47:36.345Z,18.40
2022-10-28T09:50:08.376Z,18.60
2022-10-28T09:52:44.162Z,18.70
2022-10-28T09:55:21.905Z,18.90
2022-10-28T09:57:50.161Z,19.20
2022-10-28T10:00:19.147Z,19.40
2022-10-28T10:02:48.627Z,19.70
2022-10-28T10:05:19.359Z,20.10
2022-10-28T10:07:50.416Z,20.40
2022-10-28T10:10:24.469Z,20.70
2022-10-28T10:12:54.859Z,20.70
2022-10-28T10:15:32.321Z,20.70
2022-10-28T10:18:03.336Z,20.50
2022-10-28T10:20:48.259Z,20.30
2022-10-28T10:23:25.099Z,20.30
2022-10-28T10:25:59.216Z,20.30
2022-10-28T10:28:29.580Z,20.50
2022-10-28T10:30:59.719Z,20.60
2022-10-28T10:33:32.644Z,20.60
2022-10-28T10:36:04.685Z,20.70
2022-10-28T10:38:33.497Z,20.90
2022-10-28T10:41:01.401Z,21.10
2022-10-28T10:43:32.950Z,21.00
2022-10-28T10:46:03.884Z,20.80
2022-10-28T10:48:36.253Z,20.90
2022-10-28T10:51:09.330Z,21.10
2022-10-28T10:53:39.175Z,21.30
2022-10-28T10:56:10.748Z,21.30
2022-10-28T10:58:41.382Z,21.10
2022-10-28T11:01:17.869Z,20.80
2022-10-28T11:03:54.040Z,20.60
2022-10-28T11:06:25.009Z,20.40
2022-10-28T11:08:58.857Z,20.10
2022-10-28T11:11:34.557Z,20.20
2022-10-28T11:14:08.480Z,20.40
2022-10-28T11:16:49.279Z,20.60
2022-10-28T11:19:22.915Z,21.10
2022-10-28T11:21:59.432Z,21.30
2022-10-28T11:24:51.815Z,21.50
2022-10-28T11:27:31.760Z,21.70
2022-10-28T11:30:01.371Z,21.80
2022-10-28T11:33:01.832Z,22.10
2022-10-28T11:35:51.038Z,22.00
2022-10-28T11:38:31.622Z,22.00
2022-10-28T11:41:13.567Z,22.00
2022-10-28T11:43:54.813Z,22.00
2022-10-28T11:46:43.388Z,21.90
2022-10-28T11:49:39.146Z,21.70
2022-10-28T11:52:23.806Z,21.80
2022-10-28T11:55:04.537Z,21.70
2022-10-28T11:57:42.774Z,21.60
2022-10-28T12:00:33.292Z,21.50
2022-10-28T12:03:34.762Z,21.30
2022-10-28T12:06:10.695Z,21.30
2022-10-28T12:08:56.384Z,21.30
2022-10-28T12:11:37.813Z,21.40
2022-10-28T12:14:14.539Z,21.60
2022-10-28T12:16:51.928Z,21.60
2022-10-28T12:19:23.547Z,21.60
2022-10-28T12:21:59.977Z,21.60
2022-10-28T12:24:31.637Z,21.60
2022-10-28T12:27:02.708Z,21.50
2022-10-28T12:29:33.531Z,21.40
2022-10-28T12:32:06.724Z,21.30
2022-10-28T12:34:39.394Z,21.10
2022-10-28T12:37:09.906Z,20.90
2022-10-28T12:39:45.473Z,20.90
2022-10-28T12:42:17.466Z,20.80
2022-10-28T12:44:47.791Z,20.60
2022-10-28T12:47:25.538Z,20.50
2022-10-28T12:50:03.199Z,20.50
2022-10-28T12:52:43.529Z,20.40
2022-10-28T12:55:25.566Z,20.30
2022-10-28T12:58:00.497Z,20.20
2022-10-28T13:00:32.276Z,20.20
2022-10-28T13:03:04.122Z,20.10
2022-10-28T13:05:40.735Z,20.10
2022-10-28T13:08:51.291Z,20.00
2022-10-28T13:11:51.443Z,19.90
2022-10-28T13:14:47.955Z,19.80
2022-10-28T13:17:37.201Z,19.80
2022-10-28T13:20:15.647Z,19.80
2022-10-28T13:23:15.402Z,19.80
2022-10-28T13:25:57.075Z,19.70
2022-10-28T13:28:31.436Z,19.60
2022-10-28T13:31:02.025Z,19.60
2022-10-28T13:33:31.175Z,19.60
2022-10-28T13:36:11.784Z,19.50
2022-10-28T13:38:41.130Z,19.40
2022-10-28T13:41:30.838Z,19.30
2022-10-28T13:44:22.892Z,19.30
2022-10-28T13:47:25.840Z,19.20
2022-10-28T13:50:23.912Z,19.10
2022-10-28T13:53:43.330Z,19.10
2022-10-28T13:56:26.328Z,19.10
2022-10-28T13:58:56.777Z,19.00
2022-10-28T14:02:01.407Z,19.00
2022-10-28T14:04:39.445Z,19.00
2022-10-28T14:07:27.887Z,18.90
2022-10-28T14:09:59.469Z,18.80
2022-10-28T14:12:30.427Z,18.90
2022-10-28T14:15:05.612Z,18.90
2022-10-28T14:17:40.018Z,19.00
2022-10-28T14:20:22.799Z,19.00
2022-10-28T14:22:52.888Z,19.00
2022-10-28T14:26:00.110Z,19.00
2022-10-28T14:28:54.499Z,18.90
2022-10-28T14:31:42.835Z,18.90
2022-10-28T14:34:37.676Z,18.90
2022-10-28T14:37:38.572Z,18.90
2022-10-28T14:40:25.763Z,18.80
2022-10-28T14:43:08.276Z,18.70
2022-10-28T14:45:45.816Z,18.70
2022-10-28T14:48:50.991Z,18.60
2022-10-28T14:51:24.031Z,18.50
2022-10-28T14:53:57.338Z,18.40
2022-10-28T14:56:27.085Z,18.30
2022-10-28T14:58:58.410Z,18.10
2022-10-28T15:01:28.603Z,18.00
2022-10-28T15:04:00.275Z,17.90
2022-10-28T15:06:41.621Z,17.80
2022-10-28T15:09:21.345Z,17.70
2022-10-28T15:11:52.610Z,17.60
2022-10-28T15:14:33.000Z,17.50
2022-10-28T15:17:04.511Z,17.40
2022-10-28T15:19:35.809Z,17.30
2022-10-28T15:22:08.115Z,17.30
2022-10-28T15:24:36.036Z,17.20
2022-10-28T15:27:04.012Z,17.10
2022-10-28T15:29:32.777Z,17.10
2022-10-28T15:32:17.149Z,17.00
2022-10-28T15:34:45.175Z,16.90
2022-10-28T15:37:18.900Z,16.90
2022-10-28T15:39:47.197Z,16.80
2022-10-28T15:42:32.374Z,16.80
2022-10-28T15:45:00.629Z,16.70
2022-10-28T15:47:33.890Z,16.60
2022-10-28T15:50:06.248Z,16.60
2022-10-28T15:52:37.914Z,16.50
2022-10-28T15:58:34.106Z,16.40
2022-10-28T16:01:02.083Z,16.40
2022-10-28T16:03:43.302Z,16.30
2022-10-28T16:06:24.728Z,16.20
2022-10-28T16:09:18.710Z,16.10
2022-10-28T16:11:49.117Z,16.00
2022-10-28T16:14:37.674Z,15.90
2022-10-28T16:17:17.648Z,15.90
2022-10-28T16:19:51.370Z,15.90
2022-10-28T16:22:20.067Z,15.80
2022-10-28T16:24:50.591Z,15.80
2022-10-28T16:27:20.621Z,15.70
2022-10-28T16:29:48.883Z,15.70
2022-10-28T16:32:18.902Z,15.70
2022-10-28T16:34:47.106Z,15.60
2022-10-28T16:37:26.991Z,15.60
2022-10-28T16:39:57.707Z,15.60
2022-10-28T16:42:25.945Z,15.60
2022-10-28T16:44:54.102Z,15.50
2022-10-28T16:47:25.553Z,15.30
2022-10-28T16:49:57.203Z,15.20
2022-10-28T16:52:27.256Z,15.20
2022-10-28T16:54:57.636Z,15.00
2022-10-28T16:57:26.550Z,15.00
2022-10-28T16:59:54.846Z,15.00
2022-10-28T17:02:26.987Z,15.00
2022-10-28T17:04:55.277Z,15.00
2022-10-28T17:07:23.206Z,15.00
2022-10-28T17:09:51.907Z,15.00
2022-10-28T17:12:23.296Z,15.00
2022-10-28T17:14:51.707Z,15.00
2022-10-28T17:17:20.090Z,14.90
2022-10-28T17:19:47.950Z,14.90
2022-10-28T17:22:15.858Z,14.80
2022-10-28T17:24:43.769Z,14.80
2022-10-28T17:27:12.884Z,14.80
2022-10-28T17:29:42.227Z,14.80
2022-10-28T17:32:10.214Z,14.70
2022-10-28T17:34:38.174Z,14.70
2022-10-28T17:37:06.100Z,14.70
2022-10-28T17:39:34.078Z,14.70
2022-10-28T17:42:01.966Z,14.60
2022-10-28T17:44:29.848Z,14.40
2022-10-28T17:46:59.038Z,14.20
2022-10-28T17:49:26.928Z,14.00
2022-10-28T17:51:54.835Z,13.90
2022-10-28T17:56:51.500Z,13.80
2022-10-28T17:59:19.356Z,13.80
2022-10-28T18:01:47.364Z,13.80
2022-10-28T18:04:16.737Z,13.80
2022-10-28T18:06:44.641Z,13.90
2022-10-28T18:09:13.236Z,13.90
2022-10-28T18:11:41.128Z,13.90
2022-10-28T18:14:09.175Z,14.00
2022-10-28T18:16:38.118Z,14.00
2022-10-28T18:19:07.334Z,14.00
2022-10-28T18:21:36.819Z,14.00
2022-10-28T18:24:05.460Z,14.00
2022-10-28T18:26:35.139Z,14.00
2022-10-28T18:29:04.067Z,14.00
2022-10-28T18:31:33.665Z,14.00
2022-10-28T18:34:02.069Z,14.00
2022-10-28T18:36:34.064Z,13.90
2022-10-28T18:39:04.320Z,13.90
2022-10-28T18:41:32.946Z,13.90
2022-10-28T18:44:03.842Z,13.90
2022-10-28T18:46:34.917Z,13.80
2022-10-28T18:49:04.304Z,13.60
2022-10-28T18:51:32.712Z,13.40
2022-10-28T18:54:00.640Z,13.30
2022-10-28T18:56:30.532Z,13.30
2022-10-28T18:58:59.061Z,13.20
2022-10-28T19:01:29.154Z,13.10
2022-10-28T19:03:59.207Z,13.00
2022-10-28T19:06:32.045Z,13.00
2022-10-28T19:09:01.695Z,13.00
2022-10-28T19:11:32.547Z,13.00
2022-10-28T19:14:02.008Z,13.00
2022-10-28T19:16:31.919Z,13.00
2022-10-28T19:19:01.176Z,13.00
2022-10-28T19:21:29.660Z,13.00
2022-10-28T19:23:57.939Z,13.00
2022-10-28T19:26:26.088Z,13.00
2022-10-28T19:28:55.596Z,12.80
2022-10-28T19:31:27.151Z,12.80
2022-10-28T19:33:55.614Z,12.90
2022-10-28T19:36:25.008Z,12.90
2022-10-28T19:38:54.368Z,12.90
2022-10-28T19:41:23.813Z,12.70
2022-10-28T19:43:58.158Z,12.60
2022-10-28T19:46:28.025Z,12.50
2022-10-28T19:48:57.699Z,12.40
2022-10-28T19:51:27.695Z,12.40
2022-10-28T19:53:57.473Z,12.40
2022-10-28T19:56:26.129Z,12.40
2022-10-28T19:58:57.071Z,12.50
2022-10-28T20:01:28.091Z,12.50
2022-10-28T20:03:56.823Z,12.50
2022-10-28T20:06:26.366Z,12.60
2022-10-28T20:08:54.226Z,12.60
2022-10-28T20:11:26.290Z,12.70
2022-10-28T20:13:57.811Z,12.70
2022-10-28T20:16:26.356Z,12.70
2022-10-28T20:18:55.274Z,12.70
2022-10-28T20:21:25.218Z,12.80
2022-10-28T20:23:55.246Z,12.80
2022-10-28T20:26:25.471Z,12.80
2022-10-28T20:28:54.779Z,12.70
2022-10-28T20:31:24.176Z,12.60
2022-10-28T20:33:53.582Z,12.50
2022-10-28T20:36:26.243Z,12.30
2022-10-28T20:38:55.440Z,12.30
2022-10-28T20:41:24.304Z,12.20
2022-10-28T20:43:54.170Z,12.10
2022-10-28T20:46:24.800Z,12.00
2022-10-28T20:48:54.175Z,11.90
2022-10-28T20:51:23.038Z,11.80
2022-10-28T20:53:51.043Z,11.80
2022-10-28T20:56:20.699Z,11.80
2022-10-28T20:58:48.847Z,11.80
2022-10-28T21:01:19.841Z,11.90
2022-10-28T21:03:50.431Z,11.90
2022-10-28T21:06:19.048Z,12.00
2022-10-28T21:08:46.985Z,12.10
2022-10-28T21:11:16.497Z,12.10
2022-10-28T21:13:45.465Z,12.10
2022-10-28T21:16:14.204Z,12.10
2022-10-28T21:18:42.104Z,12.10
2022-10-28T21:21:12.014Z,12.00
2022-10-28T21:23:40.192Z,11.80
2022-10-28T21:26:09.255Z,11.80
2022-10-28T21:28:37.533Z,11.70
2022-10-28T21:31:07.141Z,11.60
2022-10-28T21:33:36.479Z,11.60
2022-10-28T21:36:07.095Z,11.70
2022-10-28T21:38:36.515Z,11.80
2022-10-28T21:41:06.543Z,11.90
2022-10-28T21:43:36.462Z,12.00
2022-10-28T21:46:04.785Z,11.80
2022-10-28T21:48:34.289Z,11.80
2022-10-28T21:51:07.223Z,11.70
2022-10-28T21:53:39.960Z,11.70
2022-10-28T21:56:15.416Z,11.60
2022-10-28T21:58:44.918Z,11.50
2022-10-28T22:01:15.122Z,11.40
2022-10-28T22:03:43.355Z,11.30
2022-10-28T22:06:11.473Z,11.30
2022-10-28T22:08:41.031Z,11.20
2022-10-28T22:11:12.699Z,11.30
2022-10-28T22:13:40.532Z,11.30
2022-10-28T22:16:11.283Z,11.30
2022-10-28T22:18:39.524Z,11.30
2022-10-28T22:21:08.700Z,11.40
2022-10-28T22:23:36.758Z,11.40
2022-10-28T22:26:07.824Z,11.50
2022-10-28T22:28:36.012Z,11.40
2022-10-28T22:31:05.960Z,11.40
2022-10-28T22:33:34.048Z,11.40
2022-10-28T22:36:03.922Z,11.50
2022-10-28T22:38:32.076Z,11.40
2022-10-28T22:41:05.478Z,11.30
2022-10-28T22:43:33.637Z,11.20
2022-10-28T22:46:01.826Z,11.10
2022-10-28T22:48:29.910Z,11.00
2022-10-28T22:50:58.350Z,11.00
2022-10-28T22:53:26.554Z,10.90
2022-10-28T22:55:54.870Z,10.90
2022-10-28T22:58:25.328Z,10.90
2022-10-28T23:00:53.314Z,10.90
2022-10-28T23:03:21.328Z,10.90
2022-10-28T23:05:49.174Z,11.00
2022-10-28T23:08:17.260Z,11.10
2022-10-28T23:10:45.171Z,11.00
2022-10-28T23:13:13.587Z,10.90
2022-10-28T23:15:42.841Z,10.70
2022-10-28T23:18:10.662Z,10.70
2022-10-28T23:20:38.511Z,10.60
2022-10-28T23:23:06.384Z,10.60
2022-10-28T23:25:34.271Z,10.60
2022-10-28T23:28:04.956Z,10.50
2022-10-28T23:30:33.163Z,10.50
2022-10-28T23:33:02.517Z,10.50
2022-10-28T23:35:30.377Z,10.40
2022-10-28T23:38:00.110Z,10.50
2022-10-28T23:40:28.057Z,10.50
2022-10-28T23:42:56.298Z,10.60
2022-10-28T23:45:24.412Z,10.60
2022-10-28T23:47:52.312Z,10.50
2022-10-28T23:50:21.525Z,10.50
2022-10-28T23:52:53.668Z,10.40
2022-10-28T23:55:21.789Z,10.40
2022-10-28T23:57:49.645Z,10.40
